Airfield :
LOGIN :

Register | Disclaimer

   EN    FR    IT 

 










Legend :    VFR   Marginal VFR   IFR   Intensive IFR   Very Intensive IFR
Visi :
Ceiling :
>= 8 km
>= 3000ft
5 to 8 km
1000 to 3000 ft
1500m to 5 km
500 to 1000 ft
800 to 1500m
200 to 500 ft
< 800m
< 200 ft
Symbols :   Thunderstorms  Fog  Heavy snow  Heavy precipitations  Wind > 20 kt
SIGMETs :     Misc.  Thunderstorms  Icing  Turbulence  Mountain Waves  Volcanic Ashes






- Airport Elevation : 140 ft
- IATA code : NYO


ESKN - Skavsta

CURRENT METAR :
  • 280550Z 17006KT 9999 OVC023 01/M01 Q1016

EXPIRED METARs :
  • 280520Z 18007KT 9999 OVC023 01/M01 Q1016
  • 280450Z 17005KT 9999 OVC025 01/M01 Q1016
  • 280420Z 19005KT 9999 OVC025 01/M00 Q1016
  • 280350Z 18005KT 9999 OVC026 01/M00 Q1016
  • 280320Z 18004KT 9999 OVC026 01/M00 Q1016
  • 280250Z 16005KT 9999 OVC027 01/M00 Q1016
  • 280220Z 16006KT 9999 OVC026 01/M00 Q1016
  • 280150Z 17005KT 9999 OVC026 01/M00 Q1017
  • 280120Z 16006KT 9999 OVC027 01/00 Q1017
  • 280050Z 16006KT 9999 OVC027 01/00 Q1017

TAF TAF ESKN
Valid from the 28 at 06:00 until the 29 at 06:00 UTC


280530Z 2806/2906 17006KT 9999 BKN025



MET'MAP, your aeronautical weather chart ! - Copyright ORBIFLY December 2007 - Disclaimer

ORBIFLY MET'MAP TEAM :

Programming & Development : Alexandra Zaïnal
Original concept : Baudouin d'Aumeries
Technical & hardware support : Manuel Goepfert
Assistance : Marc-Olivier Méhu




SOURCES & CREDITS :

   NOAA